Eminence, KY

11:54 AM EST on December 19, 2014 (GMT -0500)
Wind Hill Farm | Change Station
CLOSE
Current Station
Personal Weather Station
Location: Shelbyville, KY
Elevation: 801 ft
Nearby Weather Stations

Elev 801 ft 38.29 °N, 85.26 °W | Updated 4 minutes ago

Overcast
Overcast
30.5 °F
Feels Like 30 °F
N
1.0
Wind Variable Wind from East
Gusts 1.0 mph

Today
High -- | Low -- °F
--% Chance of Precip.
Yesterday
High -- | Low -- °F
Precip. -- in
7:53 AM 5:22 PM
Waning Crescent, 7% visible
Pressure 30.28 in
Visibility 8.0 miles
Clouds Overcast 1500 ft
Windchill 30 °F
Dew Point 25 °F
Humidity 80%
Rainfall 0.00 in
Snow Depth Not available.
UV 1 out of 12
Pollen .10 out of 12
Air Quality Not available.
Flu Activity Not available.
SPECI KFFT 191633Z AUTO 03004KT 8SM OVC015 M02/M06 A3028 RMK AO2 T10171061

More Conditions Fewer Conditions

Pressure 30.28 in
Visibility 8.0 miles
Clouds Overcast 1500 ft
Windchill 30 °F
Dew Point 25 °F
Humidity 80%
Rainfall 0.00 in
Snow Depth Not available.
UV 1 out of 12
Pollen .10 out of 12
Air Quality Not available.
Flu Activity Not available.
SPECI KFFT 191633Z AUTO 03004KT 8SM OVC015 M02/M06 A3028 RMK AO2 T10171061

More Conditions Fewer Conditions

10-Day Weather Forecast

Almanac

Astronomy

Dec. 19, 2014 Rise Set
Actual Time
Civil Twilight
Nautical Twilight
Astronomical Twilight
Moon
Length of Visible Light
Length of Day
Tomorrow will be .
, % of the Moon is Illuminated

Today's Extremes

State Highs State Lows

Community

WunderPhotos

Upload Photos

1,779,005 photos uploaded!

WunderBlogs® & News

Nearby

Air Quality

  Air Quality AQ Index Pollutant
Not available.

Snow Depth

Station Depth Elevation

Earthquake Activity

City Distance Mag. Time & Date
Minimum magnitude displayed is 2.5.

Coastal Water Temperatures

Place Temperature

Nearby Weather Stations